Terminal Aerodrome Forecast
Issued by NWS

Home | Current Version | Previous Version | Text Only | Print | Product List | Glossary On
Versions: 1 2 3 4 5 6 7 8 9 10 11 12 13 14 15 16 17 18 19 20
000
FTUS43 KLSX 040200 AAA
TAFUIN
TAF AMD
KUIN 040215Z 0402/0424 32012KT P6SM OVC025
     FM041000 34015G22KT P6SM SCT015 BKN120=

USA.gov is the U.S. government's official web portal to all federal, state and local government web resources and services.